Time;durP1;ratioP1;P1;durP2;ratioP2;P2;SDS_P1;SDS_P2;PMS_P1;PMS_P2;Temp;Humidity;BMP_temperature;BMP_pressure;BME280_temperature;BME280_humidity;BME280_pressure;Samples;Min_cycle;Max_cycle;Signal;HPM_P1;HPM_P2
2022/07/17 00:02:11;;;;;;;6.40;2.80;;;;;;;17.18;56.39;102606.75;5074955;28;20440;-71
2022/07/17 00:04:37;;;;;;;7.28;2.80;;;;;;;17.19;56.28;102596.97;5075413;28;20024;-70
2022/07/17 00:07:02;;;;;;;10.65;3.05;;;;;;;17.16;56.36;102602.25;5074143;28;20029;-70
2022/07/17 00:09:28;;;;;;;7.72;3.17;;;;;;;17.09;56.49;102597.75;5075375;28;20064;-70
2022/07/17 00:11:53;;;;;;;6.60;2.90;;;;;;;17.04;56.50;102611.03;5075272;28;20419;-70
2022/07/17 00:14:18;;;;;;;7.55;2.97;;;;;;;17.01;56.78;102598.53;5075258;28;20035;-70
2022/07/17 00:16:44;;;;;;;5.60;2.90;;;;;;;16.95;57.07;102597.56;5075263;28;20074;-70
2022/07/17 00:19:09;;;;;;;8.35;3.05;;;;;;;16.96;56.76;102602.94;5075347;28;20385;-70
2022/07/17 00:21:35;;;;;;;9.13;3.08;;;;;;;17.01;56.64;102603.00;5075077;28;20486;-70
2022/07/17 00:24:00;;;;;;;5.75;2.90;;;;;;;16.99;56.52;102608.28;5075190;28;20383;-71
2022/07/17 00:26:25;;;;;;;6.13;2.80;;;;;;;17.02;56.42;102610.13;5075024;28;20020;-70
2022/07/17 00:28:51;;;;;;;7.95;2.83;;;;;;;16.91;56.71;102609.97;5074764;28;20044;-70
2022/07/17 00:31:16;;;;;;;13.77;3.17;;;;;;;16.73;57.43;102607.06;5074911;28;20035;-70
2022/07/17 00:33:41;;;;;;;7.85;3.10;;;;;;;16.73;57.41;102604.41;5074973;28;20430;-70
2022/07/17 00:36:07;;;;;;;9.20;3.70;;;;;;;16.69;57.73;102606.09;5074594;28;20027;-70
2022/07/17 00:38:33;;;;;;;10.05;3.25;;;;;;;16.71;57.67;102606.13;5073399;28;20474;-70
2022/07/17 00:40:58;;;;;;;6.50;3.25;;;;;;;16.68;57.62;102608.75;5074825;28;20150;-70
2022/07/17 00:43:25;;;;;;;10.57;3.60;;;;;;;16.65;57.49;102606.03;5074838;28;20032;-70
2022/07/17 00:46:01;;;;;;;9.85;3.30;;;;;;;16.58;57.33;102597.06;5074714;28;20024;-69
2022/07/17 00:48:27;;;;;;;7.68;3.20;;;;;;;16.51;57.90;102604.06;5074449;28;20029;-70
2022/07/17 00:50:53;;;;;;;8.55;3.00;;;;;;;16.55;58.05;102606.78;5074501;28;20035;-70
2022/07/17 00:53:19;;;;;;;5.90;2.90;;;;;;;16.43;58.03;102600.38;5074424;28;20095;-70
2022/07/17 00:55:47;;;;;;;5.50;2.90;;;;;;;16.40;58.08;102607.44;5074652;28;20454;-70
2022/07/17 00:58:19;;;;;;;6.85;2.92;;;;;;;16.40;57.86;102602.09;5074631;28;20103;-70
2022/07/17 01:00:45;;;;;;;6.47;3.13;;;;;;;16.34;58.09;102607.38;5074429;28;20481;-70
2022/07/17 01:03:10;;;;;;;6.07;2.97;;;;;;;16.26;58.73;102597.47;5074375;28;20028;-70
2022/07/17 01:05:36;;;;;;;9.60;3.47;;;;;;;16.22;58.55;102600.94;5074192;28;20032;-70
2022/07/17 01:08:01;;;;;;;7.32;3.00;;;;;;;16.25;58.61;102600.13;5074191;28;20066;-70
2022/07/17 01:10:27;;;;;;;8.88;3.10;;;;;;;16.23;58.44;102597.44;5074317;28;20036;-70
2022/07/17 01:12:52;;;;;;;7.40;3.10;;;;;;;16.17;58.55;102594.66;5073333;28;20501;-70
2022/07/17 01:15:18;;;;;;;9.18;3.45;;;;;;;16.00;59.15;102591.72;5074104;28;20102;-69
2022/07/17 01:17:43;;;;;;;5.85;3.30;;;;;;;15.93;59.79;102595.19;5073987;28;20032;-69
2022/07/17 01:20:11;;;;;;;5.57;3.20;;;;;;;15.92;59.10;102588.03;5074149;28;20505;-69
2022/07/17 01:22:49;;;;;;;6.57;3.00;;;;;;;15.98;58.63;102584.59;5073977;28;20035;-69
2022/07/17 01:25:15;;;;;;;5.32;3.10;;;;;;;15.97;58.93;102590.75;5073841;28;20486;-69
2022/07/17 01:27:41;;;;;;;6.63;2.72;;;;;;;15.79;59.00;102591.34;5073537;28;20028;-70
2022/07/17 01:30:08;;;;;;;4.70;2.88;;;;;;;15.81;59.51;102591.41;5073796;28;20085;-70
2022/07/17 01:32:39;;;;;;;6.03;3.10;;;;;;;15.72;59.80;102594.81;5073523;28;20025;-70
2022/07/17 01:35:05;;;;;;;7.03;3.13;;;;;;;15.59;59.87;102593.66;5073722;28;20024;-69
2022/07/17 01:37:31;;;;;;;7.90;3.00;;;;;;;15.55;60.11;102596.25;5073685;28;20016;-69
2022/07/17 01:39:57;;;;;;;6.00;2.80;;;;;;;15.56;60.25;102580.28;5073629;28;20101;-69
2022/07/17 01:42:24;;;;;;;8.38;3.15;;;;;;;15.62;59.88;102583.03;5073460;28;20039;-69
2022/07/17 01:44:51;;;;;;;9.32;2.90;;;;;;;15.68;59.63;102576.97;5073389;28;20382;-69
2022/07/17 01:47:17;;;;;;;6.00;2.90;;;;;;;15.73;59.55;102586.84;5073430;28;20150;-69
2022/07/17 01:49:50;;;;;;;4.65;2.90;;;;;;;15.70;59.25;102586.78;5073378;28;20036;-69
2022/07/17 01:52:16;;;;;;;6.38;3.17;;;;;;;15.64;59.96;102591.06;5073879;28;20382;-70
2022/07/17 01:54:42;;;;;;;6.10;3.20;;;;;;;15.57;60.08;102592.72;5073526;28;20057;-69
2022/07/17 01:57:09;;;;;;;7.43;3.00;;;;;;;15.45;60.37;102592.50;5073415;28;20024;-70
2022/07/17 01:59:34;;;;;;;6.65;3.28;;;;;;;15.37;60.56;102599.44;5073077;28;20024;-69
2022/07/17 02:02:00;;;;;;;6.40;2.92;;;;;;;15.25;60.29;102608.13;5073237;28;20035;-69
2022/07/17 02:04:25;;;;;;;7.05;3.03;;;;;;;15.18;60.65;102604.41;5073304;28;20367;-69
2022/07/17 02:06:53;;;;;;;11.13;3.25;;;;;;;15.14;61.11;102607.00;5073214;28;20036;-69
2022/07/17 02:09:19;;;;;;;10.48;3.10;;;;;;;15.04;61.63;102600.59;5073039;28;20028;-69
2022/07/17 02:11:44;;;;;;;6.75;2.95;;;;;;;15.02;61.66;102610.28;5073179;28;20029;-69
2022/07/17 02:14:10;;;;;;;5.70;2.95;;;;;;;15.01;61.52;102603.19;5071884;28;20030;-70
2022/07/17 02:16:36;;;;;;;7.95;3.13;;;;;;;15.09;61.41;102600.69;5073076;28;20021;-69
2022/07/17 02:19:01;;;;;;;7.43;2.80;;;;;;;15.11;61.15;102606.91;5073305;28;20055;-69
2022/07/17 02:21:26;;;;;;;7.55;2.83;;;;;;;15.05;60.92;102607.69;5073007;28;20032;-70
2022/07/17 02:23:52;;;;;;;9.75;3.13;;;;;;;14.97;61.36;102607.53;5072886;28;20090;-69
2022/07/17 02:26:17;;;;;;;10.38;3.10;;;;;;;15.11;61.03;102610.47;5073040;28;20018;-69
2022/07/17 02:28:43;;;;;;;6.85;2.72;;;;;;;15.16;60.81;102607.91;5072421;28;20053;-69
2022/07/17 02:31:09;;;;;;;10.20;2.85;;;;;;;15.21;60.43;102615.13;5073187;28;20033;-69
2022/07/17 02:33:34;;;;;;;4.60;2.70;;;;;;;15.02;60.56;102605.84;5073106;28;20032;-69
2022/07/17 02:36:01;;;;;;;6.22;2.80;;;;;;;15.16;60.18;102599.91;5072961;28;20505;-69
2022/07/17 02:38:26;;;;;;;5.30;2.90;;;;;;;15.00;60.43;102610.28;5072714;28;20040;-69
2022/07/17 02:40:54;;;;;;;5.85;2.72;;;;;;;14.80;60.53;102586.75;5075498;22;20129;-86
2022/07/17 02:43:20;;;;;;;6.22;2.72;;;;;;;14.67;61.00;102565.19;4992382;28;20031;-88
2022/07/17 02:45:50;;;;;;;5.75;2.90;;;;;;;14.69;60.67;102544.88;4993797;28;20378;-87
2022/07/17 02:48:15;;;;;;;4.53;3.00;;;;;;;14.81;61.39;102572.56;4992913;28;20023;-86
2022/07/17 02:50:41;;;;;;;9.02;2.90;;;;;;;14.76;60.68;102541.44;4992749;28;20033;-87
2022/07/17 02:53:06;;;;;;;7.35;3.13;;;;;;;14.76;60.95;102552.09;4992852;28;20033;-86
2022/07/17 02:55:34;;;;;;;5.13;2.80;;;;;;;14.93;60.72;102587.03;4993710;28;20070;-87
2022/07/17 02:57:59;;;;;;;6.60;3.20;;;;;;;14.83;61.12;102579.75;4993673;28;20394;-87
2022/07/17 03:00:27;;;;;;;7.38;3.20;;;;;;;14.94;61.16;102591.50;4993957;28;20018;-87
2022/07/17 03:02:55;;;;;;;7.60;3.30;;;;;;;14.87;61.32;102594.00;4993854;28;20451;-86
2022/07/17 03:05:22;;;;;;;9.27;3.17;;;;;;;14.78;61.58;102592.06;4994114;28;20030;-86
2022/07/17 03:07:48;;;;;;;5.80;3.30;;;;;;;14.66;62.21;102598.00;4993284;28;20034;-86
2022/07/17 03:10:14;;;;;;;5.72;3.30;;;;;;;14.62;61.72;102597.91;4992372;28;20041;-86
2022/07/17 03:12:40;;;;;;;5.15;3.25;;;;;;;14.59;61.59;102612.03;4993504;28;20072;-86
2022/07/17 03:15:07;;;;;;;6.45;3.42;;;;;;;14.48;62.00;102605.56;4992625;28;20034;-86
2022/07/17 03:17:32;;;;;;;5.38;3.20;;;;;;;14.26;62.46;102577.53;4993741;28;20037;-86
2022/07/17 03:19:58;;;;;;;5.97;3.50;;;;;;;14.31;62.51;102597.19;4993532;28;20387;-86
2022/07/17 03:22:23;;;;;;;8.63;3.60;;;;;;;14.22;63.11;102607.59;4976115;28;20057;-87
2022/07/17 03:24:48;;;;;;;4.25;2.80;;;;;;;14.20;62.82;102618.19;4993408;28;20118;-87
2022/07/17 03:27:14;;;;;;;7.07;3.47;;;;;;;14.20;62.83;102617.28;4976262;28;20026;-86
2022/07/17 03:29:40;;;;;;;5.57;3.13;;;;;;;14.22;62.78;102607.59;4993578;28;20462;-87
2022/07/17 03:32:06;;;;;;;4.90;3.00;;;;;;;14.19;62.49;102592.47;4992366;28;20112;-86
2022/07/17 03:34:32;;;;;;;7.32;3.10;;;;;;;14.34;62.41;102605.19;4992233;28;20037;-86
2022/07/17 03:36:57;;;;;;;4.28;2.80;;;;;;;14.32;62.52;102595.41;4996266;28;20101;-86
2022/07/17 03:39:22;;;;;;;6.32;2.97;;;;;;;14.32;62.29;102584.78;4995364;28;20463;-86
2022/07/17 03:41:48;;;;;;;4.47;2.92;;;;;;;14.25;62.50;102583.72;4995026;28;20061;-87
2022/07/17 03:44:13;;;;;;;6.25;3.10;;;;;;;14.10;62.89;102594.00;4996706;28;20061;-86
2022/07/17 03:46:39;;;;;;;6.65;2.92;;;;;;;13.89;63.62;102578.44;4994792;28;20125;-87
2022/07/17 03:49:04;;;;;;;5.65;3.17;;;;;;;13.82;64.23;102587.09;4996652;28;20037;-86
2022/07/17 03:51:29;;;;;;;5.93;3.17;;;;;;;13.86;64.18;102610.22;4994742;28;20384;-86
2022/07/17 03:53:57;;;;;;;5.65;3.30;;;;;;;13.93;64.04;102599.81;4994736;28;20034;-86
2022/07/17 03:56:22;;;;;;;5.95;2.95;;;;;;;13.90;64.26;102588.19;4995658;28;20430;-86
2022/07/17 03:58:48;;;;;;;5.70;3.30;;;;;;;13.91;63.86;102604.16;4995889;28;20027;-86
2022/07/17 04:01:14;;;;;;;5.43;3.08;;;;;;;13.94;63.55;102606.00;4996372;28;20125;-86
2022/07/17 04:03:39;;;;;;;8.45;2.95;;;;;;;13.84;63.16;102596.91;4995997;28;20026;-86
2022/07/17 04:06:07;;;;;;;6.55;3.30;;;;;;;13.82;63.55;102609.25;4998513;28;20060;-86
2022/07/17 04:08:37;;;;;;;7.07;3.13;;;;;;;13.77;63.50;102611.78;4994393;28;20037;-86
2022/07/17 04:11:03;;;;;;;6.18;3.05;;;;;;;13.82;63.65;102626.94;4996047;28;20033;-87
2022/07/17 04:13:28;;;;;;;9.88;3.30;;;;;;;13.71;63.66;102603.69;4994590;28;20026;-88
2022/07/17 04:15:56;;;;;;;10.55;3.15;;;;;;;13.92;63.51;102623.69;4996948;28;20031;-89
2022/07/17 04:18:24;;;;;;;6.55;3.20;;;;;;;14.01;63.29;102638.09;4978778;28;20606;-88
2022/07/17 04:20:54;;;;;;;7.70;3.38;;;;;;;14.06;63.04;102634.66;4995539;28;20022;-88
2022/07/17 04:23:20;;;;;;;9.05;3.20;;;;;;;14.05;63.10;102617.81;4995468;28;20027;-88
2022/07/17 04:25:46;;;;;;;6.00;3.17;;;;;;;14.01;63.39;102600.00;4995426;28;20034;-87
2022/07/17 04:28:12;;;;;;;5.93;3.35;;;;;;;14.19;63.32;102640.31;4997228;28;20042;-87
2022/07/17 04:30:37;;;;;;;9.40;3.55;;;;;;;14.07;63.68;102642.66;4995507;28;20034;-88
2022/07/17 04:33:03;;;;;;;6.15;3.15;;;;;;;14.01;64.03;102615.94;4978443;28;20031;-87
2022/07/17 04:35:29;;;;;;;5.55;2.90;;;;;;;13.99;63.89;102612.34;4994787;28;20330;-88
2022/07/17 04:37:55;;;;;;;5.70;3.40;;;;;;;14.21;63.31;102622.63;4993925;28;20029;-88
2022/07/17 04:40:21;;;;;;;7.45;3.30;;;;;;;14.27;63.74;102617.47;4995639;28;20126;-87
2022/07/17 04:42:47;;;;;;;4.88;2.95;;;;;;;14.19;64.44;102615.50;4995044;28;20034;-87
2022/07/17 04:45:13;;;;;;;6.00;3.58;;;;;;;14.18;64.27;102613.69;4995367;28;20058;-87
2022/07/17 04:47:39;;;;;;;6.90;3.50;;;;;;;14.22;64.14;102608.50;4995267;28;20050;-88
2022/07/17 04:50:07;;;;;;;8.27;4.15;;;;;;;14.26;64.17;102610.38;4994249;28;20466;-88
2022/07/17 04:52:35;;;;;;;5.28;3.30;;;;;;;14.39;64.56;102621.25;4995196;28;20430;-87
2022/07/17 04:55:03;;;;;;;6.53;3.63;;;;;;;14.55;64.16;102623.47;4977996;28;20073;-87
2022/07/17 04:57:29;;;;;;;7.90;4.00;;;;;;;14.62;64.60;102638.72;4994683;28;20030;-87
2022/07/17 04:59:54;;;;;;;7.90;4.20;;;;;;;14.68;64.29;102637.94;4993603;28;20114;-87
2022/07/17 05:02:19;;;;;;;9.77;3.90;;;;;;;14.71;64.39;102624.72;4997202;28;20030;-84
2022/07/17 05:04:46;;;;;;;7.65;4.38;;;;;;;14.94;65.01;102655.38;4996908;28;20042;-84
2022/07/17 05:07:12;;;;;;;11.00;4.53;;;;;;;14.88;64.43;102614.44;4993185;28;20074;-86
2022/07/17 05:09:37;;;;;;;8.57;4.45;;;;;;;15.11;64.87;102645.09;4993403;28;20031;-85
2022/07/17 05:12:03;;;;;;;10.77;4.60;;;;;;;15.34;64.46;102655.34;4993439;28;20027;-85
2022/07/17 05:14:28;;;;;;;11.00;4.70;;;;;;;15.37;64.83;102645.63;4993205;28;20030;-85
2022/07/17 05:16:53;;;;;;;11.38;4.32;;;;;;;15.49;64.58;102644.97;4994510;28;20030;-85
2022/07/17 05:19:19;;;;;;;14.00;4.05;;;;;;;15.69;63.71;102646.28;4994718;28;20181;-85
2022/07/17 05:21:44;;;;;;;9.48;4.00;;;;;;;15.70;64.09;102637.41;4994449;28;20064;-86
2022/07/17 05:24:10;;;;;;;10.50;3.85;;;;;;;15.72;63.77;102632.13;4993005;28;20069;-87
2022/07/17 05:26:36;;;;;;;11.43;4.32;;;;;;;15.80;63.66;102651.78;4961003;28;20041;-86
2022/07/17 05:29:01;;;;;;;10.23;4.28;;;;;;;15.89;64.16;102648.44;4993848;28;20026;-86
2022/07/17 05:31:26;;;;;;;15.27;4.35;;;;;;;16.02;63.86;102635.31;4992994;28;20034;-87
2022/07/17 05:33:52;;;;;;;11.35;4.35;;;;;;;16.11;63.30;102634.56;4994140;28;20079;-85
2022/07/17 05:36:17;;;;;;;8.80;3.72;;;;;;;16.22;62.19;102624.97;4994052;28;20368;-86
2022/07/17 05:38:43;;;;;;;11.63;4.03;;;;;;;16.47;62.67;102641.34;4994076;28;20030;-86
2022/07/17 05:41:10;;;;;;;8.18;3.90;;;;;;;16.47;62.18;102623.56;4992663;28;20048;-87
2022/07/17 05:43:36;;;;;;;8.30;3.80;;;;;;;16.56;61.60;102624.59;4994437;28;20026;-85
2022/07/17 05:46:01;;;;;;;8.88;3.72;;;;;;;16.77;61.81;102636.50;4993092;28;20065;-85
2022/07/17 05:48:26;;;;;;;10.23;3.78;;;;;;;16.85;59.85;102620.59;4994037;28;20096;-85
2022/07/17 05:50:52;;;;;;;8.98;3.95;;;;;;;17.09;59.35;102633.38;4996341;28;20563;-84
2022/07/17 05:53:18;;;;;;;11.77;3.97;;;;;;;17.18;60.07;102625.47;4996755;28;20026;-85
2022/07/17 05:55:44;;;;;;;8.25;3.50;;;;;;;17.28;59.36;102621.13;4993862;28;20026;-85
2022/07/17 05:58:10;;;;;;;6.78;3.45;;;;;;;17.38;57.42;102624.78;4992461;28;20418;-86
2022/07/17 06:00:36;;;;;;;8.07;3.55;;;;;;;17.60;56.37;102621.47;4993073;28;20027;-85
2022/07/17 06:03:02;;;;;;;8.00;3.55;;;;;;;17.86;55.96;102635.13;4993515;28;20121;-85
2022/07/17 06:05:27;;;;;;;9.48;3.78;;;;;;;17.92;55.87;102611.09;4994044;28;20137;-86
2022/07/17 06:07:53;;;;;;;7.32;3.53;;;;;;;18.19;56.32;102630.94;4993304;28;20058;-86
2022/07/17 06:10:19;;;;;;;11.20;4.00;;;;;;;18.38;55.14;102627.50;4995144;28;20386;-85
2022/07/17 06:12:45;;;;;;;8.77;3.40;;;;;;;18.42;54.53;102617.72;4993563;28;20113;-85
2022/07/17 06:15:11;;;;;;;10.65;3.80;;;;;;;18.43;55.05;102615.06;4976278;28;20399;-85
2022/07/17 06:17:37;;;;;;;7.50;3.65;;;;;;;18.41;55.34;102597.19;4995690;28;20038;-84
2022/07/17 06:20:03;;;;;;;8.73;3.80;;;;;;;18.52;54.32;102599.03;4994783;28;20030;-85
2022/07/17 06:22:29;;;;;;;11.18;3.78;;;;;;;18.80;54.36;102595.63;4993359;28;20423;-85
2022/07/17 06:24:54;;;;;;;10.65;3.70;;;;;;;18.76;53.74;102598.31;4993478;28;20030;-84
2022/07/17 06:27:20;;;;;;;9.10;3.83;;;;;;;18.88;53.77;102610.84;4993627;28;20042;-85
2022/07/17 06:29:46;;;;;;;12.15;3.85;;;;;;;19.04;54.04;102621.66;4993517;28;20092;-85
2022/07/17 06:32:11;;;;;;;8.60;3.88;;;;;;;19.11;52.75;102607.41;4991991;28;20027;-86
2022/07/17 06:34:37;;;;;;;7.28;3.72;;;;;;;19.37;52.29;102632.50;4993741;28;20031;-85
2022/07/17 06:37:02;;;;;;;6.75;3.38;;;;;;;19.48;51.38;102632.50;4993237;28;20057;-85
2022/07/17 06:39:28;;;;;;;9.52;3.47;;;;;;;19.48;51.39;102633.41;4993120;28;20038;-86
2022/07/17 06:41:53;;;;;;;8.50;3.75;;;;;;;19.65;51.18;102612.00;4991604;28;20055;-86
2022/07/17 06:44:19;;;;;;;6.78;3.40;;;;;;;19.66;50.61;102599.53;4991890;28;20450;-87
2022/07/17 06:46:44;;;;;;;9.23;3.70;;;;;;;19.85;50.83;102633.50;4993059;28;20451;-83
2022/07/17 06:49:10;;;;;;;9.68;3.80;;;;;;;19.89;51.43;102635.28;4993195;28;20431;-84
2022/07/17 06:51:35;;;;;;;8.98;4.25;;;;;;;20.19;50.56;102641.56;4993168;28;20370;-85
2022/07/17 06:54:00;;;;;;;10.32;3.67;;;;;;;20.42;49.02;102646.91;4991197;28;20420;-83
2022/07/17 06:56:26;;;;;;;8.93;3.85;;;;;;;20.70;48.06;102658.53;4993151;28;20061;-82
2022/07/17 06:58:51;;;;;;;7.50;3.40;;;;;;;20.93;48.23;102663.84;4993390;28;20042;-86
2022/07/17 07:01:17;;;;;;;10.60;3.90;;;;;;;21.12;47.68;102654.81;4991729;28;20094;-86
2022/07/17 07:03:42;;;;;;;13.13;3.72;;;;;;;21.25;47.22;102661.03;4991706;28;20066;-88
2022/07/17 07:06:08;;;;;;;8.73;3.40;;;;;;;21.31;46.79;102655.63;4993047;28;20042;-84
2022/07/17 07:08:34;;;;;;;10.50;3.80;;;;;;;21.50;46.34;102665.44;4992786;28;20061;-84
2022/07/17 07:11:00;;;;;;;12.75;4.03;;;;;;;21.58;45.68;102653.72;4993762;28;20057;-84
2022/07/17 07:13:26;;;;;;;9.07;3.90;;;;;;;21.72;46.05;102666.19;4997090;28;20030;-85
2022/07/17 07:15:51;;;;;;;14.27;3.90;;;;;;;21.85;46.16;102668.81;4979187;28;20036;-83
2022/07/17 07:18:22;;;;;;;14.00;3.60;;;;;;;22.18;44.93;102676.66;4997720;28;20064;-89
2022/07/17 07:20:48;;;;;;;11.52;3.58;;;;;;;22.34;43.37;102668.41;4996741;28;20033;-88
2022/07/17 07:23:15;;;;;;;8.73;3.40;;;;;;;22.65;43.53;102677.97;4979402;28;20035;-92
2022/07/17 07:25:43;;;;;;;8.80;3.60;;;;;;;22.60;42.29;102673.56;4980547;28;20482;-87
2022/07/17 07:28:08;;;;;;;8.02;3.75;;;;;;;22.78;42.84;102675.16;4995655;28;20027;-86
2022/07/17 07:30:34;;;;;;;11.88;3.80;;;;;;;22.85;42.20;102658.00;4979020;28;20038;-86
2022/07/17 07:32:59;;;;;;;12.50;3.63;;;;;;;22.69;42.67;102666.25;4995041;28;20029;-83
2022/07/17 07:35:25;;;;;;;9.23;3.67;;;;;;;22.58;43.32;102656.53;4996608;28;20026;-87
2022/07/17 07:37:50;;;;;;;6.68;3.53;;;;;;;22.74;43.01;102663.53;4996598;28;20068;-87
2022/07/17 07:40:16;;;;;;;10.50;4.05;;;;;;;23.11;42.55;102663.13;4994566;28;20474;-86
2022/07/17 07:42:41;;;;;;;9.68;3.90;;;;;;;23.41;41.64;102661.84;4997257;28;20372;-85
2022/07/17 07:45:08;;;;;;;8.73;3.78;;;;;;;23.66;41.96;102675.91;4994948;28;20037;-90
2022/07/17 07:47:41;;;;;;;13.73;3.38;;;;;;;23.94;39.71;102658.38;4998002;28;20033;-88
2022/07/17 07:50:06;;;;;;;9.80;3.20;;;;;;;23.97;38.81;102644.81;4995054;28;20323;-86
2022/07/17 07:52:32;;;;;;;8.50;3.10;;;;;;;24.16;39.05;102658.03;4978840;28;20105;-87
2022/07/17 07:54:57;;;;;;;9.55;3.28;;;;;;;24.16;39.35;102656.22;4978476;28;20049;-88
2022/07/17 07:57:22;;;;;;;8.45;3.08;;;;;;;24.43;37.80;102671.06;4995449;28;20463;-86
2022/07/17 07:59:48;;;;;;;6.70;2.75;;;;;;;24.57;36.61;102669.91;5001140;28;20030;-91
2022/07/17 08:02:13;;;;;;;5.78;3.00;;;;;;;24.66;36.93;102672.44;4997409;28;20034;-87
2022/07/17 08:04:39;;;;;;;8.18;3.00;;;;;;;24.86;35.96;102672.97;4978734;28;20398;-90
2022/07/17 08:07:04;;;;;;;5.50;2.47;;;;;;;25.04;36.44;102676.22;4994603;28;20042;-86
2022/07/17 08:09:29;;;;;;;8.57;2.90;;;;;;;25.08;37.76;102664.41;4995923;28;20026;-86
2022/07/17 08:11:55;;;;;;;6.82;2.90;;;;;;;25.33;36.11;102681.94;4994847;28;20034;-89
2022/07/17 08:14:20;;;;;;;8.30;3.03;;;;;;;25.34;35.43;102681.00;4991805;28;20060;-94
2022/07/17 08:16:45;;;;;;;8.60;3.13;;;;;;;25.49;36.06;102674.38;4994918;28;20080;-87
2022/07/17 08:19:11;;;;;;;10.73;2.97;;;;;;;25.41;35.80;102665.53;4998524;28;20038;-91
2022/07/17 08:21:36;;;;;;;8.48;2.88;;;;;;;25.62;35.63;102673.16;4994605;28;20087;-91
2022/07/17 08:24:02;;;;;;;8.43;2.80;;;;;;;25.88;36.06;102682.53;4994820;28;20031;-86
2022/07/17 08:26:27;;;;;;;9.40;3.10;;;;;;;25.83;34.83;102679.06;4995752;28;20088;-93
2022/07/17 08:28:53;;;;;;;9.32;2.90;;;;;;;26.14;34.48;102680.06;5002913;28;20035;-88
2022/07/17 08:31:18;;;;;;;9.40;3.20;;;;;;;26.16;33.59;102669.19;4995270;28;20030;-85
2022/07/17 08:33:44;;;;;;;6.80;2.45;;;;;;;26.36;33.44;102674.97;4993618;28;20550;-83
2022/07/17 08:36:09;;;;;;;8.95;2.50;;;;;;;26.41;32.14;102667.59;4994035;28;20037;-82
2022/07/17 08:38:34;;;;;;;6.82;2.47;;;;;;;26.27;32.74;102674.34;4995018;28;20429;-82
2022/07/17 08:41:00;;;;;;;7.55;2.83;;;;;;;26.05;33.45;102669.47;4994050;28;20149;-82
2022/07/17 08:43:25;;;;;;;9.65;2.88;;;;;;;26.11;33.63;102674.72;4994874;28;20026;-82
2022/07/17 08:45:51;;;;;;;8.65;2.70;;;;;;;26.25;32.61;102658.09;4995054;28;20022;-82
2022/07/17 08:48:18;;;;;;;6.25;2.70;;;;;;;26.23;32.79;102673.53;4993220;28;20030;-82
2022/07/17 08:50:44;;;;;;;9.98;2.80;;;;;;;26.23;32.22;102668.09;4994956;28;20458;-81
2022/07/17 08:53:10;;;;;;;7.40;2.42;;;;;;;26.33;34.40;102668.75;4995083;28;20447;-83
2022/07/17 08:55:36;;;;;;;6.50;2.67;;;;;;;26.74;32.30;102678.53;4995025;28;20486;-82
2022/07/17 08:58:04;;;;;;;7.63;2.90;;;;;;;27.03;31.76;102666.84;4994718;28;20459;-81
2022/07/17 09:00:30;;;;;;;8.68;3.10;;;;;;;27.19;30.65;102670.91;4993521;28;20027;-82
2022/07/17 09:03:02;;;;;;;8.57;3.03;;;;;;;27.31;31.26;102666.03;4993278;28;20022;-84
2022/07/17 09:05:34;;;;;;;8.38;2.80;;;;;;;27.61;31.81;102661.47;4994869;28;20030;-82
2022/07/17 09:08:00;;;;;;;10.52;3.30;;;;;;;27.63;31.87;102663.22;4994484;28;20022;-83
2022/07/17 09:10:47;;;;;;;9.30;2.80;;;;;;;27.79;30.99;102662.75;4994696;28;20022;-83
2022/07/17 09:13:18;;;;;;;10.48;2.55;;;;;;;27.85;30.51;102651.69;4994562;28;20026;-82
2022/07/17 09:15:45;;;;;;;8.43;3.05;;;;;;;27.97;30.92;102647.69;4994923;28;20422;-83
2022/07/17 09:18:10;;;;;;;9.43;2.80;;;;;;;28.17;29.87;102664.19;4994746;28;20069;-83
2022/07/17 09:20:44;;;;;;;5.50;2.70;;;;;;;28.31;29.47;102651.03;4995035;28;20037;-83
2022/07/17 09:23:09;;;;;;;7.20;2.70;;;;;;;28.53;29.89;102659.34;4994545;28;20132;-84
2022/07/17 09:25:42;;;;;;;6.90;2.70;;;;;;;28.70;29.75;102662.34;4993040;28;20126;-83
2022/07/17 09:28:10;;;;;;;8.32;2.70;;;;;;;28.82;28.71;102657.38;4993319;28;20018;-83
2022/07/17 09:30:38;;;;;;;7.25;2.85;;;;;;;28.84;28.27;102658.22;4994491;28;20030;-82
2022/07/17 09:33:12;;;;;;;9.10;2.90;;;;;;;28.95;26.94;102661.44;4994041;28;20054;-81
2022/07/17 09:36:09;;;;;;;7.25;3.17;;;;;;;29.10;27.62;102655.41;4994192;28;20106;-81
2022/07/17 09:38:38;;;;;;;9.25;2.95;;;;;;;29.00;26.97;102651.28;4981614;28;20069;-82
2022/07/17 09:41:17;;;;;;;12.82;3.08;;;;;;;28.98;27.15;102655.88;4993855;28;20046;-81
2022/07/17 09:43:47;;;;;;;7.55;2.90;;;;;;;28.90;26.41;102641.63;4994026;28;20022;-81
2022/07/17 09:46:17;;;;;;;7.03;2.85;;;;;;;29.18;26.46;102647.84;4994282;28;20165;-84
2022/07/17 09:48:47;;;;;;;6.65;2.80;;;;;;;29.37;26.25;102637.09;4993844;28;20026;-82
2022/07/17 09:51:18;;;;;;;6.53;2.70;;;;;;;29.45;27.26;102645.84;4993917;28;20018;-83
2022/07/17 09:53:47;;;;;;;10.25;2.70;;;;;;;29.88;25.36;102646.84;4993930;28;20029;-84
2022/07/17 09:56:17;;;;;;;8.45;2.70;;;;;;;29.89;25.25;102639.56;4994515;28;20037;-82
2022/07/17 09:58:47;;;;;;;10.05;3.03;;;;;;;29.74;25.24;102648.41;4994343;28;20101;-81
2022/07/17 10:01:15;;;;;;;7.75;2.80;;;;;;;29.74;25.50;102638.38;4993694;28;20019;-81
2022/07/17 10:03:41;;;;;;;7.70;2.63;;;;;;;30.11;26.01;102647.75;4992502;28;20113;-81
2022/07/17 10:06:06;;;;;;;8.23;2.85;;;;;;;30.22;26.54;102647.31;4993820;28;20037;-81
2022/07/17 10:08:33;;;;;;;7.32;2.95;;;;;;;30.40;25.09;102641.91;4993231;28;20386;-82
2022/07/17 10:10:59;;;;;;;9.18;3.03;;;;;;;30.40;25.15;102635.56;4992325;28;20439;-81
2022/07/17 10:13:25;;;;;;;7.88;3.00;;;;;;;30.37;24.76;102631.16;4993555;28;20117;-81
2022/07/17 10:15:51;;;;;;;6.88;2.80;;;;;;;30.66;24.98;102656.25;4993707;28;20023;-81
2022/07/17 10:18:16;;;;;;;9.90;3.00;;;;;;;30.94;23.63;102647.72;4992288;28;20038;-81
2022/07/17 10:20:42;;;;;;;8.27;3.08;;;;;;;30.91;23.74;102636.94;4993351;28;20085;-80
2022/07/17 10:23:14;;;;;;;7.85;2.95;;;;;;;30.65;25.64;102649.00;4993149;28;20467;-80
2022/07/17 10:25:39;;;;;;;11.50;3.45;;;;;;;30.50;25.60;102647.88;4993317;28;20030;-80
2022/07/17 10:28:06;;;;;;;8.05;3.15;;;;;;;30.36;25.84;102644.84;4993256;28;20023;-81
2022/07/17 10:30:31;;;;;;;7.85;2.95;;;;;;;30.93;24.14;102652.28;4993025;28;20066;-81
2022/07/17 10:33:00;;;;;;;6.20;2.83;;;;;;;30.97;24.16;102657.63;4993268;28;20065;-81
2022/07/17 10:35:26;;;;;;;8.13;2.83;;;;;;;31.08;24.29;102647.94;4993275;28;20096;-81
2022/07/17 10:37:52;;;;;;;8.45;2.75;;;;;;;31.28;23.83;102647.03;4993555;28;20117;-83
2022/07/17 10:40:23;;;;;;;9.23;2.90;;;;;;;31.39;23.61;102649.25;4992737;28;20362;-84
2022/07/17 10:43:05;;;;;;;7.28;2.90;;;;;;;31.55;23.55;102642.06;4993205;28;20043;-84
2022/07/17 10:45:42;;;;;;;;;;;;;;;31.91;23.85;102646.72;4994047;28;20023;-82
2022/07/17 10:48:13;;;;;;;8.30;2.70;;;;;;;31.45;23.13;102635.31;4997216;28;20366;-82
2022/07/17 10:50:48;;;;;;;5.80;2.72;;;;;;;31.83;23.40;102638.91;4997540;28;20522;-82
2022/07/17 10:53:22;;;;;;;7.13;2.50;;;;;;;31.75;23.58;102630.16;4997063;28;20015;-83
2022/07/17 10:56:01;;;;;;;8.60;2.50;;;;;;;32.08;22.66;102638.53;4997467;28;20018;-81
2022/07/17 10:58:44;;;;;;;6.97;2.72;;;;;;;32.17;22.12;102639.91;4997271;28;20459;-82
2022/07/17 11:01:14;;;;;;;7.63;2.53;;;;;;;32.29;22.18;102636.53;4995818;28;20031;-82
2022/07/17 11:03:47;;;;;;;6.88;2.72;;;;;;;32.21;21.53;102630.56;4996939;28;20062;-83
2022/07/17 11:06:34;;;;;;;5.45;2.47;;;;;;;32.06;21.50;102639.56;4995535;28;20018;-82
2022/07/17 11:09:08;;;;;;;9.85;2.50;;;;;;;32.08;21.77;102637.66;4996791;28;20426;-82
2022/07/17 11:11:49;;;;;;;7.63;2.60;;;;;;;32.12;22.31;102637.41;4997153;28;20032;-83
2022/07/17 11:14:20;;;;;;;7.10;2.47;;;;;;;32.23;23.11;102623.16;4996731;28;20022;-82
2022/07/17 11:16:46;;;;;;;9.23;2.80;;;;;;;32.30;21.61;102637.41;4996940;28;20029;-83
2022/07/17 11:19:19;;;;;;;9.02;2.50;;;;;;;32.04;21.92;102634.19;4995348;28;20030;-82
2022/07/17 11:21:47;;;;;;;6.63;2.60;;;;;;;32.49;22.65;102642.81;4996243;28;20112;-82
2022/07/17 11:24:12;;;;;;;9.07;2.50;;;;;;;32.68;21.65;102635.41;4995371;28;20131;-82